Terminal Aerodrome Forecast
Issued by NWS Cleveland, OH

Home | Current Version | Previous Version | Text Only | Print | Product List | Glossary On
Versions: 1 2 3 4 5 6 7 8 9 10 11 12 13 14
862
FTUS41 KCLE 261739
TAFYNG
TAF
KYNG 261739Z 2618/2718 28012KT P6SM BKN050
     FM262200 26008KT P6SM VCTS BKN035CB
      TEMPO 2623/2703 4SM SHRA OVC025
     FM270300 25008KT P6SM BKN070
     FM271000 28008KT P6SM BKN025
     FM271700 29009KT P6SM BKN040=

USA.gov is the U.S. government's official web portal to all federal, state and local government web resources and services.